createdAt,value
2023-02-19T00:01:28.825Z,8.69
2023-02-19T00:03:58.193Z,8.69
2023-02-19T00:06:28.207Z,8.69
2023-02-19T00:08:55.656Z,8.68
2023-02-19T00:11:25.994Z,8.70
2023-02-19T00:13:54.637Z,8.71
2023-02-19T00:16:24.350Z,8.74
2023-02-19T00:18:52.232Z,8.76
2023-02-19T00:21:19.816Z,8.79
2023-02-19T00:23:58.201Z,8.81
2023-02-19T00:26:25.526Z,8.83
2023-02-19T00:28:55.544Z,8.85
2023-02-19T00:31:25.588Z,8.87
2023-02-19T00:33:55.379Z,8.90
2023-02-19T00:36:23.217Z,8.95
2023-02-19T00:38:50.940Z,8.99
2023-02-19T00:41:19.570Z,9.04
2023-02-19T00:43:55.263Z,9.06
2023-02-19T00:46:43.228Z,9.06
2023-02-19T00:49:23.342Z,9.06
2023-02-19T00:51:52.844Z,9.06
2023-02-19T00:54:22.508Z,9.04
2023-02-19T00:56:49.485Z,9.02
2023-02-19T00:59:16.407Z,9.04
2023-02-19T01:01:45.051Z,9.05
2023-02-19T01:04:12.431Z,9.05
2023-02-19T01:06:39.095Z,9.07
2023-02-19T01:09:07.185Z,9.09
2023-02-19T01:11:34.225Z,9.05
2023-02-19T01:14:01.989Z,9.00
2023-02-19T01:16:29.425Z,8.99
2023-02-19T01:18:57.309Z,8.98
2023-02-19T01:21:26.446Z,9.00
2023-02-19T01:23:53.924Z,9.03
2023-02-19T01:26:23.584Z,9.05
2023-02-19T01:28:50.619Z,9.07
2023-02-19T01:31:21.262Z,9.08
2023-02-19T01:33:50.557Z,9.10
2023-02-19T01:36:17.644Z,9.12
2023-02-19T01:38:45.180Z,9.13
2023-02-19T01:41:15.014Z,9.13
2023-02-19T01:44:00.092Z,9.15
2023-02-19T01:46:32.753Z,9.17
2023-02-19T01:49:09.353Z,9.20
2023-02-19T01:51:39.561Z,9.23
2023-02-19T01:54:09.855Z,9.26
2023-02-19T01:56:40.009Z,9.28
2023-02-19T01:59:08.818Z,9.30
2023-02-19T02:01:40.242Z,9.31
2023-02-19T02:04:11.130Z,9.27
2023-02-19T02:06:51.343Z,9.24
2023-02-19T02:09:43.401Z,9.17
2023-02-19T02:12:10.233Z,9.06
2023-02-19T02:14:41.560Z,9.03
2023-02-19T02:17:30.427Z,9.02
2023-02-19T02:20:18.053Z,8.99
2023-02-19T02:22:52.589Z,8.98
2023-02-19T02:25:37.323Z,8.97
2023-02-19T02:28:20.663Z,8.89
2023-02-19T02:30:56.524Z,8.84
2023-02-19T02:33:36.130Z,8.79
2023-02-19T02:36:09.079Z,8.77
2023-02-19T02:38:41.083Z,8.75
2023-02-19T02:41:09.123Z,8.75
2023-02-19T02:43:36.578Z,8.70
2023-02-19T02:46:03.870Z,8.62
2023-02-19T02:48:56.691Z,8.54
2023-02-19T02:51:25.326Z,8.45
2023-02-19T02:54:23.855Z,8.39
2023-02-19T02:56:52.784Z,8.29
2023-02-19T02:59:25.342Z,8.30
2023-02-19T03:02:10.880Z,8.33
2023-02-19T03:05:03.576Z,8.37
2023-02-19T03:07:54.596Z,8.43
2023-02-19T03:10:30.780Z,8.45
2023-02-19T03:13:19.401Z,8.48
2023-02-19T03:16:11.974Z,8.52
2023-02-19T03:19:00.045Z,8.55
2023-02-19T03:21:28.835Z,8.58
2023-02-19T03:24:16.816Z,8.61
2023-02-19T03:26:45.849Z,8.65
2023-02-19T03:29:23.001Z,8.70
2023-02-19T03:31:56.146Z,8.73
2023-02-19T03:34:28.392Z,8.74
2023-02-19T03:37:18.768Z,8.72
2023-02-19T03:39:45.789Z,8.70
2023-02-19T03:42:33.045Z,8.72
2023-02-19T03:45:27.584Z,8.74
2023-02-19T03:48:24.471Z,8.76
2023-02-19T03:51:03.330Z,8.79
2023-02-19T03:53:53.010Z,8.81
2023-02-19T03:56:45.348Z,8.81
2023-02-19T03:59:33.371Z,8.82
2023-02-19T04:02:11.932Z,8.84
2023-02-19T04:04:46.160Z,8.87
2023-02-19T04:07:13.839Z,8.89
2023-02-19T04:09:45.530Z,8.90
2023-02-19T04:12:15.658Z,8.90
2023-02-19T04:14:49.360Z,8.90
2023-02-19T04:17:31.697Z,8.92
2023-02-19T04:20:01.161Z,8.93
2023-02-19T04:22:28.991Z,8.91
2023-02-19T04:24:56.562Z,8.86
2023-02-19T04:27:23.725Z,8.79
2023-02-19T04:29:53.312Z,8.77
2023-02-19T04:32:20.045Z,8.73
2023-02-19T04:34:47.008Z,8.66
2023-02-19T04:37:13.690Z,8.57
2023-02-19T04:39:40.341Z,8.53
2023-02-19T04:42:07.003Z,8.51
2023-02-19T04:44:34.277Z,8.43
2023-02-19T04:47:01.154Z,8.42
2023-02-19T04:49:27.817Z,8.44
2023-02-19T04:51:54.473Z,8.42
2023-02-19T04:54:21.227Z,8.44
2023-02-19T04:56:47.928Z,8.50
2023-02-19T04:59:14.591Z,8.53
2023-02-19T05:01:41.191Z,8.59
2023-02-19T05:04:07.823Z,8.64
2023-02-19T05:06:34.492Z,8.68
2023-02-19T05:09:01.115Z,8.72
2023-02-19T05:11:27.774Z,8.76
2023-02-19T05:13:56.268Z,8.81
2023-02-19T05:16:23.074Z,8.85
2023-02-19T05:18:50.008Z,8.88
2023-02-19T05:21:17.114Z,8.90
2023-02-19T05:23:44.362Z,8.90
2023-02-19T05:26:19.287Z,8.86
2023-02-19T05:28:48.612Z,8.85
2023-02-19T05:31:15.854Z,8.88
2023-02-19T05:33:44.305Z,8.89
2023-02-19T05:36:14.556Z,8.89
2023-02-19T05:38:42.013Z,8.92
2023-02-19T05:41:10.419Z,8.92
2023-02-19T05:43:38.753Z,8.91
2023-02-19T05:46:06.490Z,8.91
2023-02-19T05:48:33.580Z,8.92
2023-02-19T05:51:08.515Z,8.94
2023-02-19T05:53:36.113Z,8.95
2023-02-19T05:56:02.827Z,8.96
2023-02-19T05:58:29.479Z,8.98
2023-02-19T06:00:56.845Z,9.00
2023-02-19T06:03:23.993Z,8.99
2023-02-19T06:05:50.790Z,8.95
2023-02-19T06:08:17.387Z,8.89
2023-02-19T06:10:44.035Z,8.84
2023-02-19T06:13:11.245Z,8.83
2023-02-19T06:15:38.271Z,8.81
2023-02-19T06:18:05.078Z,8.81
2023-02-19T06:20:32.989Z,8.80
2023-02-19T06:22:59.843Z,8.78
2023-02-19T06:25:26.501Z,8.73
2023-02-19T06:27:53.236Z,8.70
2023-02-19T06:30:20.083Z,8.57
2023-02-19T06:32:46.801Z,8.45
2023-02-19T06:35:13.436Z,8.33
2023-02-19T06:37:40.041Z,8.28
2023-02-19T06:40:07.477Z,8.25
2023-02-19T06:42:34.076Z,8.23
2023-02-19T06:45:00.837Z,8.20
2023-02-19T06:47:31.825Z,8.21
2023-02-19T06:49:59.331Z,8.22
2023-02-19T06:52:27.042Z,8.17
2023-02-19T06:54:54.029Z,8.14
2023-02-19T06:57:20.723Z,8.17
2023-02-19T06:59:47.420Z,8.19
2023-02-19T07:02:14.040Z,8.23
2023-02-19T07:04:40.820Z,8.26
2023-02-19T07:07:11.140Z,8.29
2023-02-19T07:09:37.848Z,8.34
2023-02-19T07:12:05.056Z,8.40
2023-02-19T07:14:31.810Z,8.42
2023-02-19T07:16:58.430Z,8.47
2023-02-19T07:19:25.090Z,8.54
2023-02-19T07:21:51.705Z,8.58
2023-02-19T07:24:19.188Z,8.62
2023-02-19T07:26:45.818Z,8.66
2023-02-19T07:29:12.507Z,8.69
2023-02-19T07:31:39.253Z,8.73
2023-02-19T07:34:07.058Z,8.77
2023-02-19T07:36:33.861Z,8.81
2023-02-19T07:39:00.706Z,8.86
2023-02-19T07:41:28.299Z,8.91
2023-02-19T07:43:56.611Z,8.97
2023-02-19T07:46:23.463Z,9.04
2023-02-19T07:48:50.396Z,9.10
2023-02-19T07:51:19.600Z,9.17
2023-02-19T07:53:47.524Z,9.23
2023-02-19T07:56:14.567Z,9.27
2023-02-19T07:58:42.196Z,9.31
2023-02-19T08:01:41.494Z,9.32
2023-02-19T08:04:09.201Z,9.38
2023-02-19T08:06:35.830Z,9.43
2023-02-19T08:09:03.978Z,9.46
2023-02-19T08:11:49.481Z,9.50
2023-02-19T08:14:16.333Z,9.55
2023-02-19T08:16:52.646Z,9.58
2023-02-19T08:19:19.871Z,9.59
2023-02-19T08:21:46.739Z,9.61
2023-02-19T08:24:13.357Z,9.63
2023-02-19T08:26:39.976Z,9.67
2023-02-19T08:29:07.267Z,9.72
2023-02-19T08:31:35.436Z,9.79
2023-02-19T08:34:02.192Z,9.85
2023-02-19T08:36:28.903Z,9.88
2023-02-19T08:38:55.546Z,9.92
2023-02-19T08:41:22.504Z,9.96
2023-02-19T08:43:49.243Z,9.95
2023-02-19T08:46:15.996Z,9.96
2023-02-19T08:48:42.664Z,10.00
2023-02-19T08:51:11.709Z,10.03
2023-02-19T08:53:40.858Z,10.01
2023-02-19T08:56:13.317Z,10.01
2023-02-19T08:58:40.399Z,9.95
2023-02-19T09:01:16.477Z,9.81
2023-02-19T09:03:43.365Z,9.75
2023-02-19T09:06:19.187Z,9.72
2023-02-19T09:08:46.464Z,9.72
2023-02-19T09:11:14.003Z,9.78
2023-02-19T09:13:41.159Z,9.79
2023-02-19T09:16:08.266Z,9.75
2023-02-19T09:18:35.758Z,9.78
2023-02-19T09:21:05.117Z,9.78
2023-02-19T09:23:36.294Z,9.76
2023-02-19T09:26:07.623Z,9.77
2023-02-19T09:28:34.612Z,9.84
2023-02-19T09:31:06.135Z,9.88
2023-02-19T09:33:33.361Z,9.88
2023-02-19T09:36:03.464Z,9.88
2023-02-19T09:38:31.105Z,9.91
2023-02-19T09:40:59.092Z,9.91
2023-02-19T09:43:29.445Z,9.93
2023-02-19T09:46:04.574Z,9.93
2023-02-19T09:48:32.015Z,9.95
2023-02-19T09:50:59.704Z,9.97
2023-02-19T09:53:33.932Z,9.97
2023-02-19T09:56:02.360Z,9.90
2023-02-19T09:58:33.490Z,9.81
2023-02-19T10:01:05.911Z,9.74
2023-02-19T10:03:36.063Z,9.70
2023-02-19T10:06:10.967Z,9.70
2023-02-19T10:08:40.383Z,9.69
2023-02-19T10:11:07.876Z,9.63
2023-02-19T10:13:41.624Z,9.59
2023-02-19T10:16:17.978Z,9.59
2023-02-19T10:18:45.859Z,9.64
2023-02-19T10:21:19.737Z,9.71
2023-02-19T10:23:53.905Z,9.80
2023-02-19T10:26:20.593Z,9.84
2023-02-19T10:28:47.222Z,9.87
2023-02-19T10:31:22.865Z,9.93
2023-02-19T10:33:55.617Z,9.95
2023-02-19T10:36:36.428Z,9.97
2023-02-19T10:39:26.568Z,9.98
2023-02-19T10:41:56.345Z,9.95
2023-02-19T10:44:29.163Z,10.02
2023-02-19T10:46:59.150Z,10.10
2023-02-19T10:49:33.530Z,10.18
2023-02-19T10:52:17.758Z,10.17
2023-02-19T10:54:45.939Z,10.16
2023-02-19T10:57:15.240Z,10.24
2023-02-19T10:59:52.322Z,10.35
2023-02-19T11:02:21.288Z,10.45
2023-02-19T11:05:20.609Z,10.50
2023-02-19T11:07:50.461Z,10.59
2023-02-19T11:10:26.630Z,10.62
2023-02-19T11:12:56.600Z,10.59
2023-02-19T11:15:31.335Z,10.56
2023-02-19T11:18:13.308Z,10.55
2023-02-19T11:20:54.528Z,10.63
2023-02-19T11:23:29.208Z,10.76
2023-02-19T11:25:59.011Z,10.86
2023-02-19T11:28:42.922Z,10.91
2023-02-19T11:31:14.600Z,11.01
2023-02-19T11:34:13.922Z,11.11
2023-02-19T11:36:42.462Z,11.26
2023-02-19T11:39:15.168Z,11.40
2023-02-19T11:42:03.996Z,11.47
2023-02-19T11:44:49.147Z,11.42
2023-02-19T11:47:35.391Z,11.49
2023-02-19T11:50:02.060Z,11.52
2023-02-19T11:52:31.365Z,11.55
2023-02-19T11:55:19.184Z,11.59
2023-02-19T11:57:53.072Z,11.62
2023-02-19T12:00:36.236Z,11.66
2023-02-19T12:03:21.825Z,11.70
2023-02-19T12:06:16.058Z,11.78
2023-02-19T12:09:14.475Z,11.81
2023-02-19T12:11:55.764Z,11.79
2023-02-19T12:14:41.253Z,11.83
2023-02-19T12:17:26.726Z,11.87
2023-02-19T12:19:56.514Z,11.99
2023-02-19T12:22:32.343Z,12.10
2023-02-19T12:25:18.731Z,12.22
2023-02-19T12:28:00.157Z,12.33
2023-02-19T12:30:26.861Z,12.42
2023-02-19T12:33:50.174Z,12.48
2023-02-19T12:36:53.758Z,12.62
2023-02-19T12:39:44.444Z,12.65
2023-02-19T12:42:22.962Z,12.67
2023-02-19T12:45:00.896Z,12.81
2023-02-19T12:47:35.227Z,13.04
2023-02-19T12:50:23.818Z,13.26
2023-02-19T12:52:56.332Z,13.50
2023-02-19T12:55:29.071Z,13.69
2023-02-19T12:57:59.156Z,13.77
2023-02-19T13:00:50.301Z,13.76
2023-02-19T13:03:21.008Z,13.77
2023-02-19T13:06:13.767Z,13.79
2023-02-19T13:09:05.826Z,13.88
2023-02-19T13:11:49.542Z,13.92
2023-02-19T13:14:40.410Z,13.98
2023-02-19T13:17:23.594Z,14.02
2023-02-19T13:19:55.461Z,14.01
2023-02-19T13:22:59.972Z,14.04
2023-02-19T13:25:41.817Z,14.00
2023-02-19T13:28:21.352Z,13.87
2023-02-19T13:31:12.380Z,13.81
2023-02-19T13:34:12.261Z,13.78
2023-02-19T13:36:39.642Z,13.69
2023-02-19T13:39:07.021Z,13.63
2023-02-19T13:41:41.479Z,13.59
2023-02-19T13:44:18.585Z,13.51
2023-02-19T13:46:47.144Z,13.42
2023-02-19T13:49:22.835Z,13.37
2023-02-19T13:51:56.702Z,13.34
2023-02-19T13:54:27.723Z,13.28
2023-02-19T13:57:22.655Z,13.20
2023-02-19T14:00:49.267Z,13.11
2023-02-19T14:03:55.229Z,13.05
2023-02-19T14:06:22.006Z,13.00
2023-02-19T14:08:55.949Z,12.99
2023-02-19T14:11:41.598Z,13.01
2023-02-19T14:14:36.440Z,13.04
2023-02-19T14:17:24.269Z,13.02
2023-02-19T14:19:53.224Z,12.97
2023-02-19T14:22:46.186Z,12.92
2023-02-19T14:25:30.771Z,12.84
2023-02-19T14:28:00.698Z,12.76
2023-02-19T14:30:28.589Z,12.76
2023-02-19T14:33:09.836Z,12.75
2023-02-19T14:35:44.667Z,12.71
2023-02-19T14:38:39.432Z,12.65
2023-02-19T14:41:07.534Z,12.58
2023-02-19T14:43:35.830Z,12.54
2023-02-19T14:46:29.925Z,12.53
2023-02-19T14:49:07.163Z,12.54
2023-02-19T14:51:40.098Z,12.54
2023-02-19T14:54:38.885Z,12.55
2023-02-19T14:57:12.882Z,12.56
2023-02-19T14:59:39.619Z,12.56
2023-02-19T15:02:21.236Z,12.54
2023-02-19T15:04:48.471Z,12.52
2023-02-19T15:07:23.437Z,12.51
2023-02-19T15:09:57.589Z,12.45
2023-02-19T15:12:28.803Z,12.40
2023-02-19T15:14:59.656Z,12.35
2023-02-19T15:17:29.617Z,12.28
2023-02-19T15:19:58.764Z,12.26
2023-02-19T15:22:28.624Z,12.25
2023-02-19T15:24:55.611Z,12.25
2023-02-19T15:27:24.911Z,12.22
2023-02-19T15:29:53.840Z,12.17
2023-02-19T15:32:24.197Z,12.13
2023-02-19T15:34:58.586Z,12.08
2023-02-19T15:37:28.947Z,12.07
2023-02-19T15:39:57.501Z,12.06
2023-02-19T15:42:29.888Z,12.01
2023-02-19T15:45:08.571Z,11.96
2023-02-19T15:48:10.913Z,11.91
2023-02-19T15:50:44.414Z,11.89
2023-02-19T15:53:18.888Z,11.86
2023-02-19T15:55:47.310Z,11.85
2023-02-19T15:58:27.894Z,11.85
2023-02-19T16:00:58.120Z,11.84
2023-02-19T16:03:26.889Z,11.84
2023-02-19T16:06:06.567Z,11.85
2023-02-19T16:08:38.478Z,11.85
2023-02-19T16:11:23.538Z,11.80
2023-02-19T16:14:13.603Z,11.77
2023-02-19T16:16:42.219Z,11.76
2023-02-19T16:19:09.998Z,11.73
2023-02-19T16:21:37.302Z,11.71
2023-02-19T16:24:13.945Z,11.67
2023-02-19T16:26:42.619Z,11.64
2023-02-19T16:29:21.979Z,11.61
2023-02-19T16:31:51.954Z,11.59
2023-02-19T16:34:30.969Z,11.59
2023-02-19T16:36:57.669Z,11.60
2023-02-19T16:39:24.436Z,11.60
2023-02-19T16:41:50.939Z,11.59
2023-02-19T16:44:20.623Z,11.56
2023-02-19T16:46:49.597Z,11.54
2023-02-19T16:49:16.911Z,11.52
2023-02-19T16:51:45.049Z,11.50
2023-02-19T16:54:12.505Z,11.48
2023-02-19T16:56:39.801Z,11.45
2023-02-19T16:59:09.763Z,11.41
2023-02-19T17:01:37.738Z,11.35
2023-02-19T17:04:08.241Z,11.28
2023-02-19T17:06:37.750Z,11.21
2023-02-19T17:09:05.319Z,11.15
2023-02-19T17:11:32.565Z,11.09
2023-02-19T17:13:59.143Z,11.06
2023-02-19T17:16:28.384Z,11.05
2023-02-19T17:18:55.668Z,11.05
2023-02-19T17:21:25.640Z,11.04
2023-02-19T17:23:52.640Z,11.04
2023-02-19T17:26:31.394Z,11.04
2023-02-19T17:29:04.327Z,11.03
2023-02-19T17:31:31.873Z,11.02
2023-02-19T17:33:59.137Z,10.98
2023-02-19T17:36:31.247Z,10.95
2023-02-19T17:39:02.746Z,10.90
2023-02-19T17:41:30.061Z,10.86
2023-02-19T17:43:56.669Z,10.80
2023-02-19T17:46:27.407Z,10.72
2023-02-19T17:48:54.859Z,10.63
2023-02-19T17:51:22.435Z,10.53
2023-02-19T17:53:49.415Z,10.47
2023-02-19T17:56:21.328Z,10.42
2023-02-19T17:58:47.993Z,10.37
2023-02-19T18:01:15.043Z,10.33
2023-02-19T18:03:42.818Z,10.29
2023-02-19T18:06:09.610Z,10.25
2023-02-19T18:08:36.231Z,10.19
2023-02-19T18:11:03.238Z,10.14
2023-02-19T18:13:30.173Z,10.08
2023-02-19T18:15:56.889Z,10.01
2023-02-19T18:18:23.521Z,9.95
2023-02-19T18:20:50.560Z,9.89
2023-02-19T18:23:17.513Z,9.83
2023-02-19T18:25:44.197Z,9.78
2023-02-19T18:28:10.915Z,9.72
2023-02-19T18:30:37.644Z,9.67
2023-02-19T18:33:04.386Z,9.64
2023-02-19T18:35:31.023Z,9.62
2023-02-19T18:37:57.783Z,9.61
2023-02-19T18:40:28.507Z,9.60
2023-02-19T18:42:55.229Z,9.60
2023-02-19T18:45:22.108Z,9.60
2023-02-19T18:47:49.868Z,9.59
2023-02-19T18:50:18.452Z,9.59
2023-02-19T18:52:45.253Z,9.56
2023-02-19T18:55:12.939Z,9.52
2023-02-19T18:57:39.567Z,9.50
2023-02-19T19:00:07.659Z,9.47
2023-02-19T19:02:48.266Z,9.43
2023-02-19T19:05:20.899Z,9.42
2023-02-19T19:07:47.524Z,9.42
2023-02-19T19:10:14.829Z,9.40
2023-02-19T19:12:41.473Z,9.40
2023-02-19T19:15:08.566Z,9.41
2023-02-19T19:17:35.731Z,9.44
2023-02-19T19:20:02.329Z,9.44
2023-02-19T19:22:28.901Z,9.46
2023-02-19T19:24:55.503Z,9.47
2023-02-19T19:27:22.095Z,9.48
2023-02-19T19:29:49.708Z,9.47
2023-02-19T19:32:16.626Z,9.48
2023-02-19T19:34:43.427Z,9.48
2023-02-19T19:37:10.112Z,9.50
2023-02-19T19:39:37.012Z,9.54
2023-02-19T19:42:03.825Z,9.60
2023-02-19T19:44:30.441Z,9.65
2023-02-19T19:46:57.172Z,9.70
2023-02-19T19:49:24.308Z,9.76
2023-02-19T19:51:50.944Z,9.81
2023-02-19T19:54:17.517Z,9.79
2023-02-19T19:56:46.854Z,9.78
2023-02-19T19:59:15.800Z,9.75
2023-02-19T20:01:53.710Z,9.75
2023-02-19T20:04:22.206Z,9.79
2023-02-19T20:06:50.040Z,9.84
2023-02-19T20:09:18.267Z,9.89
2023-02-19T20:11:50.792Z,9.94
2023-02-19T20:14:19.540Z,9.99
2023-02-19T20:16:48.675Z,10.03
2023-02-19T20:19:16.961Z,10.04
2023-02-19T20:21:49.322Z,10.03
2023-02-19T20:24:18.265Z,10.02
2023-02-19T20:26:45.275Z,10.02
2023-02-19T20:29:12.335Z,10.01
2023-02-19T20:31:39.497Z,10.01
2023-02-19T20:34:06.302Z,9.97
2023-02-19T20:36:33.041Z,9.97
2023-02-19T20:38:59.825Z,10.01
2023-02-19T20:41:26.582Z,10.06
2023-02-19T20:43:53.288Z,10.13
2023-02-19T20:46:20.081Z,10.17
2023-02-19T20:48:47.040Z,10.21
2023-02-19T20:51:13.878Z,10.25
2023-02-19T20:53:41.972Z,10.26
2023-02-19T20:56:09.041Z,10.19
2023-02-19T20:58:35.772Z,10.13
2023-02-19T21:01:02.450Z,10.11
2023-02-19T21:03:29.500Z,10.13
2023-02-19T21:05:56.210Z,10.14
2023-02-19T21:08:22.931Z,10.16
2023-02-19T21:10:49.720Z,10.17
2023-02-19T21:13:16.400Z,10.17
2023-02-19T21:15:43.526Z,10.18
2023-02-19T21:18:10.521Z,10.16
2023-02-19T21:20:37.163Z,10.11
2023-02-19T21:23:03.997Z,10.04
2023-02-19T21:25:33.810Z,9.99
2023-02-19T21:28:00.577Z,9.94
2023-02-19T21:30:27.410Z,9.91
2023-02-19T21:32:54.224Z,9.91
2023-02-19T21:35:20.866Z,9.91
2023-02-19T21:37:47.684Z,9.91
2023-02-19T21:40:15.655Z,9.91
2023-02-19T21:42:42.484Z,9.95
2023-02-19T21:45:09.467Z,9.99
2023-02-19T21:47:36.270Z,10.04
2023-02-19T21:50:02.970Z,10.08
2023-02-19T21:52:31.178Z,10.11
2023-02-19T21:54:58.002Z,10.13
2023-02-19T21:57:24.757Z,10.15
2023-02-19T21:59:51.528Z,10.15
2023-02-19T22:02:20.761Z,10.19
2023-02-19T22:04:53.655Z,10.22
2023-02-19T22:07:21.859Z,10.26
2023-02-19T22:09:50.135Z,10.27
2023-02-19T22:12:18.242Z,10.28
2023-02-19T22:14:45.401Z,10.29
2023-02-19T22:17:12.131Z,10.26
2023-02-19T22:19:39.253Z,10.22
2023-02-19T22:22:05.981Z,10.20
2023-02-19T22:24:32.709Z,10.18
2023-02-19T22:26:59.381Z,10.18
2023-02-19T22:29:26.062Z,10.19
2023-02-19T22:31:53.083Z,10.21
2023-02-19T22:34:20.077Z,10.25
2023-02-19T22:36:47.077Z,10.27
2023-02-19T22:39:25.543Z,10.30
2023-02-19T22:41:53.349Z,10.34
2023-02-19T22:44:20.063Z,10.37
2023-02-19T22:46:52.383Z,10.39
2023-02-19T22:49:20.580Z,10.39
2023-02-19T22:52:07.531Z,10.39
2023-02-19T22:54:35.628Z,10.40
2023-02-19T22:57:02.799Z,10.41
2023-02-19T22:59:29.706Z,10.44
2023-02-19T23:01:56.793Z,10.47
2023-02-19T23:04:25.653Z,10.48
2023-02-19T23:06:52.541Z,10.50
2023-02-19T23:09:28.231Z,10.52
2023-02-19T23:12:03.844Z,10.51
2023-02-19T23:14:30.641Z,10.46
2023-02-19T23:16:58.411Z,10.40
2023-02-19T23:19:26.098Z,10.34
2023-02-19T23:21:53.405Z,10.30
2023-02-19T23:24:20.139Z,10.28
2023-02-19T23:26:50.055Z,10.31
2023-02-19T23:29:19.680Z,10.32
2023-02-19T23:31:46.839Z,10.34
2023-02-19T23:34:14.564Z,10.35
2023-02-19T23:36:42.758Z,10.37
2023-02-19T23:39:11.511Z,10.39
2023-02-19T23:41:52.710Z,10.42
2023-02-19T23:44:21.647Z,10.43
2023-02-19T23:46:48.986Z,10.44
2023-02-19T23:49:16.547Z,10.45
2023-02-19T23:51:43.818Z,10.44
2023-02-19T23:54:11.019Z,10.41
2023-02-19T23:56:38.284Z,10.38
2023-02-19T23:59:05.035Z,10.36
